TPC201 KMEM-KMSL
Flight info
| Callsign | TPC201 |
|---|---|
| Flight time | N/A |
| Altitude | |
| Route | VFR NW |
| Aircraft | D40/L-DOV/C |
Departure
| Time | 2026-05-01 14:45 |
|---|---|
| Airport | Memphis International Airport (KMEM) |
Arrival
| Time | N/A |
|---|---|
| Airport | Northwest Alabama Regional Airport (KMSL) |
| Time | Latitude | Longitude | Altitude | Speed | Heading |
|---|---|---|---|---|---|
| 2026-05-01 14:13 | 35.05433 | -89.98267 | 324 ft | 0 kts | 274° |
| 2026-05-01 14:29 | 35.05436 | -89.98291 | 324 ft | 1 kts | 301° |
| 2026-05-01 14:30 | 35.05556 | -89.98391 | 324 ft | 5 kts | 303° |
| 2026-05-01 14:30 | 35.05568 | -89.98438 | 324 ft | 7 kts | 278° |
| 2026-05-01 14:30 | 35.05565 | -89.98487 | 324 ft | 4 kts | 249° |
| 2026-05-01 14:31 | 35.05440 | -89.98510 | 324 ft | 16 kts | 180° |
| 2026-05-01 14:31 | 35.05364 | -89.98511 | 324 ft | 17 kts | 180° |
| 2026-05-01 14:31 | 35.05252 | -89.98511 | 324 ft | 15 kts | 183° |
| 2026-05-01 14:31 | 35.05130 | -89.98513 | 324 ft | 11 kts | 180° |
| 2026-05-01 14:32 | 35.05044 | -89.98513 | 324 ft | 14 kts | 180° |
| 2026-05-01 14:32 | 35.04975 | -89.98514 | 324 ft | 15 kts | 177° |
| 2026-05-01 14:32 | 35.04864 | -89.98513 | 324 ft | 9 kts | 181° |
| 2026-05-01 14:32 | 35.04795 | -89.98511 | 324 ft | 11 kts | 178° |
| 2026-05-01 14:33 | 35.04737 | -89.98510 | 324 ft | 13 kts | 180° |
| 2026-05-01 14:33 | 35.04629 | -89.98507 | 324 ft | 18 kts | 180° |
| 2026-05-01 14:33 | 35.04505 | -89.98505 | 324 ft | 17 kts | 178° |
| 2026-05-01 14:33 | 35.04386 | -89.98503 | 324 ft | 17 kts | 176° |
| 2026-05-01 14:34 | 35.04268 | -89.98500 | 324 ft | 16 kts | 177° |
| 2026-05-01 14:34 | 35.04145 | -89.98496 | 324 ft | 18 kts | 175° |
| 2026-05-01 14:34 | 35.04014 | -89.98494 | 324 ft | 15 kts | 178° |
| 2026-05-01 14:34 | 35.03924 | -89.98493 | 324 ft | 10 kts | 195° |
| 2026-05-01 14:35 | 35.03890 | -89.98516 | 324 ft | 4 kts | 234° |
| 2026-05-01 14:35 | 35.03873 | -89.98562 | 324 ft | 7 kts | 234° |
| 2026-05-01 14:35 | 35.03838 | -89.98586 | 324 ft | 6 kts | 183° |
| 2026-05-01 14:35 | 35.03767 | -89.98585 | 324 ft | 12 kts | 181° |
| 2026-05-01 14:36 | 35.03686 | -89.98586 | 325 ft | 10 kts | 198° |
| 2026-05-01 14:36 | 35.03663 | -89.98608 | 325 ft | 0 kts | 243° |
| 2026-05-01 14:42 | 35.03659 | -89.98619 | 325 ft | 2 kts | 254° |
| 2026-05-01 14:42 | 35.03658 | -89.98661 | 326 ft | 7 kts | 286° |
| 2026-05-01 14:43 | 35.03704 | -89.98713 | 326 ft | 10 kts | 348° |
| 2026-05-01 14:43 | 35.03715 | -89.98715 | 326 ft | 0 kts | 348° |
| 2026-05-01 14:43 | 35.03718 | -89.98715 | 326 ft | 6 kts | 351° |
| 2026-05-01 14:43 | 35.03937 | -89.98721 | 323 ft | 55 kts | 359° |
| 2026-05-01 14:44 | 35.04421 | -89.98730 | 392 ft | 76 kts | 359° |
| 2026-05-01 14:44 | 35.05478 | -89.98725 | 741 ft | 77 kts | 1° |
| 2026-05-01 14:44 | 35.06013 | -89.98638 | 925 ft | 76 kts | 7° |
| 2026-05-01 14:45 | 35.06549 | -89.98517 | 1055 ft | 83 kts | 8° |
| 2026-05-01 14:45 | 35.07727 | -89.98417 | 1397 ft | 88 kts | 2° |
| 2026-05-01 14:45 | 35.08315 | -89.98389 | 1617 ft | 85 kts | 3° |
| 2026-05-01 14:46 | 35.08896 | -89.98163 | 1747 ft | 92 kts | 34° |
| 2026-05-01 14:46 | 35.09101 | -89.96715 | 2039 ft | 105 kts | 116° |
| 2026-05-01 14:46 | 35.08660 | -89.95968 | 2028 ft | 113 kts | 135° |
| 2026-05-01 14:47 | 35.08063 | -89.95279 | 1964 ft | 122 kts | 137° |
| 2026-05-01 14:47 | 35.07447 | -89.94548 | 1888 ft | 125 kts | 134° |
| 2026-05-01 14:47 | 35.06839 | -89.93750 | 1773 ft | 133 kts | 135° |
| 2026-05-01 14:48 | 35.05624 | -89.92110 | 1857 ft | 123 kts | 132° |
| 2026-05-01 14:48 | 35.05063 | -89.91334 | 1912 ft | 121 kts | 131° |
| 2026-05-01 14:48 | 35.03895 | -89.89785 | 1919 ft | 127 kts | 136° |
| 2026-05-01 14:49 | 35.02695 | -89.88237 | 1965 ft | 126 kts | 132° |
| 2026-05-01 14:49 | 35.01572 | -89.86615 | 2026 ft | 125 kts | 130° |
| 2026-05-01 14:50 | 35.00711 | -89.85185 | 2036 ft | 127 kts | 127° |
| 2026-05-01 14:50 | 34.99477 | -89.83146 | 2118 ft | 128 kts | 129° |
| 2026-05-01 14:51 | 34.98939 | -89.82297 | 2137 ft | 128 kts | 128° |
| 2026-05-01 14:51 | 34.98087 | -89.80506 | 2410 ft | 119 kts | 110° |
| 2026-05-01 14:52 | 34.97668 | -89.78541 | 2718 ft | 112 kts | 97° |
| 2026-05-01 14:52 | 34.97607 | -89.77579 | 2857 ft | 115 kts | 94° |
| 2026-05-01 14:52 | 34.97464 | -89.75643 | 3207 ft | 114 kts | 96° |
| 2026-05-01 14:53 | 34.97406 | -89.74687 | 3362 ft | 111 kts | 91° |
| 2026-05-01 14:53 | 34.97397 | -89.73732 | 3484 ft | 112 kts | 91° |
| 2026-05-01 14:53 | 34.97393 | -89.72806 | 3679 ft | 107 kts | 90° |
| 2026-05-01 14:53 | 34.97388 | -89.71909 | 3893 ft | 104 kts | 90° |
| 2026-05-01 14:54 | 34.97376 | -89.71026 | 4085 ft | 105 kts | 89° |
| 2026-05-01 14:54 | 34.97357 | -89.70128 | 4285 ft | 105 kts | 92° |
| 2026-05-01 14:54 | 34.97302 | -89.69244 | 4437 ft | 105 kts | 96° |
| 2026-05-01 14:54 | 34.97235 | -89.68348 | 4565 ft | 108 kts | 94° |
| 2026-05-01 14:55 | 34.97182 | -89.67454 | 4751 ft | 106 kts | 94° |
| 2026-05-01 14:55 | 34.97116 | -89.66542 | 4886 ft | 108 kts | 93° |
| 2026-05-01 14:55 | 34.97090 | -89.65584 | 4919 ft | 120 kts | 92° |
| 2026-05-01 14:55 | 34.97026 | -89.64530 | 4885 ft | 128 kts | 96° |
| 2026-05-01 14:56 | 34.96951 | -89.63467 | 4975 ft | 123 kts | 93° |
| 2026-05-01 14:56 | 34.96903 | -89.62413 | 4970 ft | 128 kts | 94° |
| 2026-05-01 14:56 | 34.96803 | -89.61328 | 4976 ft | 130 kts | 98° |
| 2026-05-01 14:56 | 34.96656 | -89.60225 | 4934 ft | 137 kts | 100° |
| 2026-05-01 14:57 | 34.96529 | -89.59116 | 5079 ft | 125 kts | 96° |
| 2026-05-01 14:57 | 34.96255 | -89.56900 | 5066 ft | 131 kts | 98° |
| 2026-05-01 14:57 | 34.96124 | -89.55765 | 4978 ft | 139 kts | 98° |
| 2026-05-01 14:58 | 34.95903 | -89.54602 | 4896 ft | 138 kts | 101° |
| 2026-05-01 14:58 | 34.95808 | -89.53438 | 4894 ft | 138 kts | 92° |
| 2026-05-01 14:58 | 34.95746 | -89.52284 | 4949 ft | 136 kts | 90° |
| 2026-05-01 14:58 | 34.95742 | -89.51133 | 4929 ft | 137 kts | 97° |
| 2026-05-01 14:59 | 34.95561 | -89.49992 | 4943 ft | 137 kts | 103° |
| 2026-05-01 14:59 | 34.95398 | -89.48858 | 4948 ft | 136 kts | 100° |
| 2026-05-01 14:59 | 34.95234 | -89.47719 | 4978 ft | 137 kts | 98° |
| 2026-05-01 14:59 | 34.95220 | -89.46546 | 4952 ft | 139 kts | 91° |
| 2026-05-01 15:00 | 34.95038 | -89.44243 | 4899 ft | 138 kts | 96° |
| 2026-05-01 15:00 | 34.94899 | -89.43097 | 4910 ft | 136 kts | 100° |
| 2026-05-01 15:00 | 34.94763 | -89.41956 | 4867 ft | 136 kts | 97° |
| 2026-05-01 15:01 | 34.94651 | -89.40811 | 4913 ft | 135 kts | 96° |
| 2026-05-01 15:01 | 34.94545 | -89.39682 | 4993 ft | 133 kts | 92° |
| 2026-05-01 15:01 | 34.94468 | -89.38554 | 4967 ft | 138 kts | 98° |
| 2026-05-01 15:01 | 34.94424 | -89.37391 | 4949 ft | 140 kts | 95° |
| 2026-05-01 15:02 | 34.94233 | -89.36235 | 4939 ft | 136 kts | 104° |
| 2026-05-01 15:02 | 34.94171 | -89.35871 | 4965 ft | 133 kts | 100° |
| 2026-05-01 15:02 | 34.94043 | -89.33952 | 4913 ft | 137 kts | 95° |
| 2026-05-01 15:02 | 34.93887 | -89.32821 | 4882 ft | 136 kts | 105° |
| 2026-05-01 15:03 | 34.93557 | -89.31740 | 4935 ft | 132 kts | 112° |
| 2026-05-01 15:03 | 34.93265 | -89.30687 | 4963 ft | 133 kts | 110° |
| 2026-05-01 15:03 | 34.92943 | -89.29593 | 4920 ft | 136 kts | 104° |
| 2026-05-01 15:03 | 34.92887 | -89.28440 | 4870 ft | 138 kts | 88° |
| 2026-05-01 15:04 | 34.92996 | -89.27309 | 4883 ft | 135 kts | 79° |
| 2026-05-01 15:04 | 34.93215 | -89.26199 | 4849 ft | 135 kts | 78° |
| 2026-05-01 15:04 | 34.93297 | -89.25041 | 4814 ft | 135 kts | 92° |
| 2026-05-01 15:04 | 34.93179 | -89.23901 | 4774 ft | 137 kts | 103° |
| 2026-05-01 15:05 | 34.92779 | -89.22892 | 4790 ft | 138 kts | 129° |
| 2026-05-01 15:05 | 34.92005 | -89.22174 | 4572 ft | 143 kts | 150° |
| 2026-05-01 15:05 | 34.91177 | -89.21585 | 4616 ft | 131 kts | 150° |
| 2026-05-01 15:05 | 34.90377 | -89.21060 | 4517 ft | 134 kts | 157° |
| 2026-05-01 15:06 | 34.89530 | -89.20603 | 4493 ft | 132 kts | 158° |
| 2026-05-01 15:06 | 34.88713 | -89.20081 | 4426 ft | 135 kts | 152° |
| 2026-05-01 15:06 | 34.87890 | -89.19532 | 4412 ft | 133 kts | 148° |
| 2026-05-01 15:06 | 34.87201 | -89.18767 | 4358 ft | 136 kts | 133° |
| 2026-05-01 15:07 | 34.86576 | -89.17913 | 4402 ft | 133 kts | 134° |
| 2026-05-01 15:07 | 34.85891 | -89.17160 | 4380 ft | 134 kts | 143° |
| 2026-05-01 15:07 | 34.85123 | -89.16521 | 4344 ft | 134 kts | 150° |
| 2026-05-01 15:07 | 34.84387 | -89.15849 | 4400 ft | 132 kts | 138° |
| 2026-05-01 15:08 | 34.83680 | -89.15131 | 4339 ft | 132 kts | 143° |
| 2026-05-01 15:08 | 34.82925 | -89.14485 | 4124 ft | 134 kts | 146° |
| 2026-05-01 15:08 | 34.82176 | -89.13812 | 3963 ft | 132 kts | 144° |
| 2026-05-01 15:08 | 34.81446 | -89.13143 | 3794 ft | 132 kts | 144° |
| 2026-05-01 15:09 | 34.80715 | -89.12473 | 3626 ft | 131 kts | 144° |
| 2026-05-01 15:09 | 34.79997 | -89.11786 | 3441 ft | 131 kts | 139° |
| 2026-05-01 15:09 | 34.79374 | -89.10978 | 3259 ft | 131 kts | 130° |
| 2026-05-01 15:09 | 34.78809 | -89.10109 | 3084 ft | 130 kts | 128° |
| 2026-05-01 15:10 | 34.78242 | -89.09245 | 2884 ft | 130 kts | 132° |
| 2026-05-01 15:10 | 34.77076 | -89.07556 | 2512 ft | 132 kts | 131° |
| 2026-05-01 15:10 | 34.76470 | -89.06746 | 2360 ft | 128 kts | 135° |
| 2026-05-01 15:11 | 34.75860 | -89.05981 | 2250 ft | 123 kts | 137° |
| 2026-05-01 15:11 | 34.74534 | -89.04572 | 1866 ft | 126 kts | 143° |
| 2026-05-01 15:11 | 34.73875 | -89.03959 | 1937 ft | 115 kts | 143° |
| 2026-05-01 15:12 | 34.73256 | -89.03374 | 2029 ft | 110 kts | 143° |
| 2026-05-01 15:12 | 34.72079 | -89.02155 | 1887 ft | 121 kts | 141° |
| 2026-05-01 15:12 | 34.71388 | -89.01584 | 1800 ft | 118 kts | 145° |
| 2026-05-01 15:13 | 34.71699 | -88.99337 | 1673 ft | 98 kts | 49° |
| 2026-05-01 15:14 | 34.72711 | -88.98348 | 1688 ft | 88 kts | 35° |
| 2026-05-01 15:14 | 34.73161 | -88.97861 | 1676 ft | 83 kts | 35° |
| 2026-05-01 15:14 | 34.74068 | -88.98347 | 1460 ft | 85 kts | 306° |
| 2026-05-01 15:15 | 34.74436 | -88.99586 | 1024 ft | 77 kts | 240° |
| 2026-05-01 15:15 | 34.73712 | -89.00391 | 834 ft | 72 kts | 216° |
| 2026-05-01 15:16 | 34.72839 | -89.01050 | 532 ft | 72 kts | 213° |
| 2026-05-01 15:16 | 34.72403 | -89.01377 | 459 ft | 4 kts | 246° |
| 2026-05-01 15:17 | 34.72410 | -89.01422 | 458 ft | 0 kts | 292° |
| 2026-05-01 15:18 | 34.72441 | -89.01494 | 456 ft | 0 kts | 129° |